Time;durP1;ratioP1;P1;durP2;ratioP2;P2;SDS_P1;SDS_P2;PMS_P1;PMS_P2;Temp;Humidity;BMP_temperature;BMP_pressure;BME280_temperature;BME280_humidity;BME280_pressure;Samples;Min_cycle;Max_cycle;Signal;HPM_P1;HPM_P2
2023/05/17 00:02:15;;;;;;;16.83;12.80;;;14.80;99.90;;;;;;4991255;28;20579;-75
2023/05/17 00:05:03;;;;;;;15.80;12.03;;;14.70;99.90;;;;;;4991475;28;20889;-77
2023/05/17 00:07:50;;;;;;;16.63;12.43;;;14.70;99.90;;;;;;4990907;28;20299;-76
2023/05/17 00:10:38;;;;;;;19.13;12.80;;;14.70;99.90;;;;;;4991233;28;20302;-75
2023/05/17 00:13:25;;;;;;;18.27;13.00;;;14.60;99.90;;;;;;4976284;28;20209;-79
2023/05/17 00:16:12;;;;;;;16.10;12.33;;;14.60;99.90;;;;;;4991123;28;20769;-80
2023/05/17 00:19:00;;;;;;;15.90;12.60;;;14.70;99.90;;;;;;4991202;28;20201;-78
2023/05/17 00:21:47;;;;;;;17.30;12.37;;;14.50;99.90;;;;;;4991495;28;20196;-77
2023/05/17 00:24:35;;;;;;;18.67;13.07;;;14.50;99.90;;;;;;4991452;28;20252;-76
2023/05/17 00:27:22;;;;;;;17.97;13.57;;;14.50;99.90;;;;;;4991733;28;20204;-76
2023/05/17 00:30:09;;;;;;;16.87;13.03;;;14.50;99.90;;;;;;4990121;28;20315;-76
2023/05/17 00:32:57;;;;;;;19.30;13.20;;;14.50;99.90;;;;;;4990964;28;20204;-76
2023/05/17 00:35:44;;;;;;;16.90;12.83;;;14.40;99.90;;;;;;4990631;28;20193;-76
2023/05/17 00:38:31;;;;;;;17.13;12.77;;;14.40;99.90;;;;;;4991671;28;20232;-77
2023/05/17 00:41:19;;;;;;;16.47;12.40;;;14.50;99.90;;;;;;4991437;28;20228;-77
2023/05/17 00:44:06;;;;;;;15.60;11.47;;;14.40;99.90;;;;;;4991122;28;20220;-78
2023/05/17 00:46:53;;;;;;;15.93;12.23;;;14.30;99.90;;;;;;4991359;28;20282;-78
2023/05/17 00:49:41;;;;;;;14.73;11.80;;;14.40;99.90;;;;;;4989347;28;20283;-75
2023/05/17 00:52:28;;;;;;;16.90;12.43;;;14.30;99.90;;;;;;4990431;28;20199;-76
2023/05/17 00:55:18;;;;;;;15.00;12.00;;;14.30;99.90;;;;;;4930859;29;20289;-76
2023/05/17 00:58:06;;;;;;;16.37;12.10;;;14.30;99.90;;;;;;4930734;29;20241;-76
2023/05/17 01:00:53;;;;;;;18.07;12.40;;;14.20;99.90;;;;;;4930078;29;20202;-74
2023/05/17 01:03:40;;;;;;;15.40;11.77;;;14.20;99.90;;;;;;4930275;28;20207;-76
2023/05/17 01:06:28;;;;;;;16.73;11.53;;;14.20;99.90;;;;;;4929754;29;20203;-75
2023/05/17 01:09:16;;;;;;;14.07;11.00;;;14.10;99.90;;;;;;4930417;28;20226;-74
2023/05/17 01:12:06;;;;;;;15.83;11.33;;;14.10;99.90;;;;;;4936931;28;20293;-77
2023/05/17 01:15:18;;;;;;;14.77;11.90;;;14.10;99.90;;;;;;4994130;28;20225;-75
2023/05/17 01:18:20;;;;;;;15.67;12.10;;;14.10;99.90;;;;;;4994283;28;20200;-75
2023/05/17 01:21:32;;;;;;;14.60;11.80;;;14.20;99.90;;;;;;4993857;28;20210;-75
2023/05/17 01:24:48;;;;;;;15.57;12.40;;;14.10;99.90;;;;;;4993873;28;20201;-76
2023/05/17 01:27:38;;;;;;;17.53;13.03;;;14.00;99.90;;;;;;4994081;28;20235;-75
2023/05/17 01:30:28;;;;;;;18.43;14.33;;;14.00;99.90;;;;;;4993465;28;20222;-76
2023/05/17 01:33:18;;;;;;;18.80;15.00;;;14.00;99.90;;;;;;4978871;28;20287;-77
2023/05/17 01:36:06;;;;;;;20.80;14.97;;;13.90;99.90;;;;;;4993672;28;20199;-75
2023/05/17 01:38:53;;;;;;;18.47;14.70;;;13.90;99.90;;;;;;4992966;28;20208;-78
2023/05/17 01:41:45;;;;;;;20.10;16.13;;;13.90;99.90;;;;;;4993760;28;20201;-78
2023/05/17 01:44:39;;;;;;;20.47;15.80;;;13.90;99.90;;;;;;4993606;28;20193;-77
2023/05/17 01:47:41;;;;;;;20.60;16.07;;;13.90;99.90;;;;;;4993401;28;20211;-78
2023/05/17 01:50:31;;;;;;;21.43;15.83;;;13.90;99.90;;;;;;4993088;28;20208;-78
2023/05/17 01:53:47;;;;;;;24.10;17.00;;;13.90;99.90;;;;;;4993406;28;20279;-75
2023/05/17 01:56:41;;;;;;;22.90;15.97;;;13.80;99.90;;;;;;4978951;28;20295;-75
2023/05/17 01:59:30;;;;;;;21.00;17.23;;;13.90;99.90;;;;;;4993293;28;20201;-77
2023/05/17 02:02:18;;;;;;;22.50;16.20;;;13.70;99.90;;;;;;4993480;28;20207;-76
2023/05/17 02:05:06;;;;;;;22.93;16.57;;;13.70;99.90;;;;;;4993133;28;20200;-77
2023/05/17 02:07:53;;;;;;;22.97;17.30;;;13.70;99.90;;;;;;4993006;28;20206;-77
2023/05/17 02:10:40;;;;;;;22.67;17.13;;;13.60;99.90;;;;;;4994018;28;20280;-78
2023/05/17 02:13:28;;;;;;;22.57;16.80;;;13.60;99.90;;;;;;4993161;28;20201;-78
2023/05/17 02:16:18;;;;;;;20.37;16.03;;;13.50;99.90;;;;;;4993086;28;20219;-74
2023/05/17 02:19:07;;;;;;;23.93;17.10;;;13.50;99.90;;;;;;4993016;28;20219;-77
2023/05/17 02:21:55;;;;;;;22.97;16.97;;;13.50;99.90;;;;;;4993060;28;20840;-76
2023/05/17 02:24:42;;;;;;;19.67;15.20;;;13.50;99.90;;;;;;4977151;28;20193;-76
2023/05/17 02:27:30;;;;;;;20.53;15.80;;;13.50;99.90;;;;;;4993012;28;20606;-75
2023/05/17 02:30:17;;;;;;;21.77;15.73;;;13.50;99.90;;;;;;4992392;28;20203;-77
2023/05/17 02:33:04;;;;;;;21.37;15.17;;;13.40;99.90;;;;;;4979283;28;20208;-76
2023/05/17 02:35:52;;;;;;;23.07;16.73;;;13.40;99.90;;;;;;4992917;28;20227;-77
2023/05/17 02:38:39;;;;;;;23.37;17.47;;;13.40;99.90;;;;;;4992740;28;20658;-76
2023/05/17 02:41:26;;;;;;;22.50;17.13;;;13.30;99.90;;;;;;4994544;28;20205;-78
2023/05/17 02:44:13;;;;;;;25.37;17.80;;;13.30;99.90;;;;;;4977150;28;20556;-78
2023/05/17 02:47:01;;;;;;;23.63;17.53;;;13.30;99.90;;;;;;4992601;28;20283;-77
2023/05/17 02:49:48;;;;;;;26.00;18.63;;;13.30;99.90;;;;;;4992792;28;20301;-78
2023/05/17 02:52:36;;;;;;;26.30;18.90;;;13.40;99.90;;;;;;4992361;28;20556;-78
2023/05/17 02:55:23;;;;;;;27.03;19.43;;;13.40;99.90;;;;;;4993087;28;20228;-79
2023/05/17 02:58:10;;;;;;;23.90;18.80;;;13.40;99.90;;;;;;4992473;28;20225;-78
2023/05/17 03:00:58;;;;;;;27.90;20.33;;;13.30;99.90;;;;;;4993049;28;20306;-78
2023/05/17 03:03:45;;;;;;;28.97;21.20;;;13.20;99.90;;;;;;4992946;28;20656;-77
2023/05/17 03:06:33;;;;;;;29.20;20.97;;;13.20;99.90;;;;;;4992065;28;20197;-78
2023/05/17 03:09:21;;;;;;;30.63;21.57;;;13.20;99.90;;;;;;4991506;28;20274;-78
2023/05/17 03:12:09;;;;;;;29.57;20.00;;;13.30;99.90;;;;;;4992948;28;20209;-77
2023/05/17 03:14:56;;;;;;;29.73;21.03;;;13.30;99.90;;;;;;4991945;28;20309;-78
2023/05/17 03:17:44;;;;;;;27.93;19.80;;;13.20;99.90;;;;;;4992341;28;20200;-74
2023/05/17 03:20:32;;;;;;;28.07;20.30;;;13.20;99.90;;;;;;4992217;28;20291;-77
2023/05/17 03:23:20;;;;;;;26.63;19.43;;;13.30;99.90;;;;;;4991558;28;20642;-77
2023/05/17 03:26:07;;;;;;;30.63;21.67;;;13.20;99.90;;;;;;4977241;28;20208;-76
2023/05/17 03:28:54;;;;;;;29.87;20.80;;;13.00;99.90;;;;;;4992574;28;20241;-76
2023/05/17 03:31:42;;;;;;;29.87;21.43;;;13.00;99.90;;;;;;4991691;28;20279;-76
2023/05/17 03:34:29;;;;;;;27.70;19.73;;;13.00;99.90;;;;;;4991124;28;20236;-75
2023/05/17 03:37:17;;;;;;;27.80;20.83;;;12.80;99.90;;;;;;4991285;28;20245;-74
2023/05/17 03:40:05;;;;;;;28.57;20.60;;;12.90;99.90;;;;;;4978188;28;20207;-74
2023/05/17 03:42:54;;;;;;;26.90;19.93;;;12.90;99.90;;;;;;4991398;28;20283;-75
2023/05/17 03:45:42;;;;;;;26.07;18.80;;;12.80;99.90;;;;;;4992023;28;20200;-76
2023/05/17 03:48:29;;;;;;;26.63;18.07;;;12.80;99.90;;;;;;4991321;28;20658;-75
2023/05/17 03:51:19;;;;;;;24.40;17.77;;;12.80;99.90;;;;;;4991157;28;20207;-74
2023/05/17 03:54:07;;;;;;;25.17;18.30;;;12.70;99.90;;;;;;4991008;28;20201;-75
2023/05/17 03:56:57;;;;;;;22.60;17.40;;;12.80;99.90;;;;;;4991493;28;20371;-76
2023/05/17 03:59:44;;;;;;;24.43;17.60;;;12.70;99.90;;;;;;4991496;28;20204;-75
2023/05/17 04:02:32;;;;;;;24.73;17.40;;;12.80;99.90;;;;;;4991584;28;20292;-76
2023/05/17 04:05:22;;;;;;;23.70;17.30;;;12.70;99.90;;;;;;4990947;28;20201;-76
2023/05/17 04:08:09;;;;;;;21.53;16.20;;;12.80;99.90;;;;;;4991202;28;20547;-76
2023/05/17 04:10:57;;;;;;;22.17;16.80;;;12.70;99.90;;;;;;4991362;28;20185;-76
2023/05/17 04:13:44;;;;;;;22.70;17.27;;;12.70;99.90;;;;;;4990734;28;20669;-74
2023/05/17 04:16:31;;;;;;;24.87;16.67;;;12.80;99.90;;;;;;4991183;28;20199;-74
2023/05/17 04:19:19;;;;;;;23.03;16.37;;;12.70;99.90;;;;;;4991322;28;20279;-73
2023/05/17 04:22:06;;;;;;;22.80;16.63;;;12.80;99.90;;;;;;4991254;28;20208;-75
2023/05/17 04:24:54;;;;;;;24.50;17.37;;;12.70;99.90;;;;;;4990993;28;20215;-77
2023/05/17 04:27:41;;;;;;;25.50;17.37;;;12.70;99.90;;;;;;4991196;28;20211;-74
2023/05/17 04:30:28;;;;;;;23.97;16.60;;;12.80;99.90;;;;;;4991288;28;20323;-75
2023/05/17 04:33:16;;;;;;;24.27;16.77;;;12.70;99.90;;;;;;4991136;28;20203;-75
2023/05/17 04:36:04;;;;;;;23.07;16.50;;;12.80;99.90;;;;;;4990996;28;20698;-75
2023/05/17 04:38:51;;;;;;;20.73;15.87;;;12.80;99.90;;;;;;4990424;28;20585;-77
2023/05/17 04:41:39;;;;;;;21.00;16.70;;;12.80;99.90;;;;;;4990801;28;20662;-76
2023/05/17 04:44:26;;;;;;;21.53;16.07;;;12.70;99.90;;;;;;4990395;28;20201;-79
2023/05/17 04:47:13;;;;;;;20.63;16.10;;;12.70;99.90;;;;;;4993060;28;20208;-76
2023/05/17 04:50:03;;;;;;;22.00;15.53;;;12.70;99.90;;;;;;4994550;28;20650;-80
2023/05/17 04:52:51;;;;;;;20.40;15.60;;;12.70;99.90;;;;;;4994486;28;20208;-75
2023/05/17 04:55:38;;;;;;;21.00;15.67;;;12.70;99.90;;;;;;4994252;28;20575;-77
2023/05/17 04:58:31;;;;;;;21.17;16.20;;;12.70;99.90;;;;;;4993118;28;20226;-77
2023/05/17 05:01:19;;;;;;;19.07;14.87;;;12.80;99.90;;;;;;4980251;28;20211;-78
2023/05/17 05:04:12;;;;;;;20.27;15.33;;;12.70;99.90;;;;;;4994846;28;20292;-77
2023/05/17 05:07:10;;;;;;;21.17;15.30;;;12.60;99.90;;;;;;4994078;28;20218;-75
2023/05/17 05:10:00;;;;;;;19.20;15.17;;;12.60;99.90;;;;;;4994517;28;20213;-77
2023/05/17 05:12:51;;;;;;;21.37;15.90;;;12.70;99.90;;;;;;4980159;28;20275;-75
2023/05/17 05:15:38;;;;;;;21.30;15.37;;;12.70;99.90;;;;;;4994436;28;20236;-76
2023/05/17 05:18:26;;;;;;;20.03;15.73;;;12.70;99.90;;;;;;4994788;28;20673;-75
2023/05/17 05:21:13;;;;;;;21.57;15.93;;;12.70;99.90;;;;;;4995277;28;20201;-77
2023/05/17 05:24:00;;;;;;;22.90;15.80;;;12.70;99.90;;;;;;4995150;28;20203;-76
2023/05/17 05:26:47;;;;;;;19.33;14.07;;;12.60;99.90;;;;;;4994747;28;20227;-77
2023/05/17 05:29:35;;;;;;;18.30;14.23;;;12.60;99.90;;;;;;4994898;28;20332;-76
2023/05/17 05:32:23;;;;;;;18.97;13.43;;;12.50;99.90;;;;;;4993155;28;20231;-71
2023/05/17 05:35:10;;;;;;;18.17;13.30;;;12.50;99.90;;;;;;4993294;28;20619;-72
2023/05/17 05:37:58;;;;;;;18.40;13.77;;;12.60;99.90;;;;;;4992982;28;20247;-74
2023/05/17 05:40:47;;;;;;;17.47;13.93;;;12.60;99.90;;;;;;4994487;28;20205;-76
2023/05/17 05:43:36;;;;;;;18.53;13.13;;;12.70;99.90;;;;;;4994535;28;20272;-78
2023/05/17 05:46:24;;;;;;;16.70;12.73;;;12.70;99.90;;;;;;4993518;28;20821;-76
2023/05/17 05:49:12;;;;;;;16.20;13.07;;;12.70;99.90;;;;;;4978918;28;20199;-75
2023/05/17 05:52:02;;;;;;;16.77;12.63;;;12.70;99.90;;;;;;4994819;28;20303;-76
2023/05/17 05:54:52;;;;;;;15.07;11.83;;;12.70;99.90;;;;;;4993382;28;20233;-76
2023/05/17 05:57:39;;;;;;;15.63;12.20;;;12.70;99.90;;;;;;4993330;28;20228;-76
2023/05/17 06:00:32;;;;;;;13.80;11.00;;;12.70;99.90;;;;;;4994550;28;20280;-76
2023/05/17 06:03:20;;;;;;;14.10;11.33;;;12.80;99.90;;;;;;4994046;28;20206;-75
2023/05/17 06:06:10;;;;;;;15.13;10.80;;;12.80;99.90;;;;;;4993721;28;20284;-76
2023/05/17 06:08:57;;;;;;;14.83;10.87;;;12.80;99.90;;;;;;4992622;28;20205;-75
2023/05/17 06:11:54;;;;;;;13.00;10.43;;;12.90;99.90;;;;;;4993089;28;20719;-74
2023/05/17 06:14:44;;;;;;;12.50;10.17;;;12.80;99.90;;;;;;4978132;28;20263;-75
2023/05/17 06:17:32;;;;;;;11.23;9.57;;;12.80;99.90;;;;;;4979380;28;20204;-75
2023/05/17 06:20:19;;;;;;;11.70;8.77;;;12.80;99.90;;;;;;4992328;28;20588;-76
2023/05/17 06:23:07;;;;;;;11.13;8.67;;;12.70;99.90;;;;;;4992134;28;20197;-75
2023/05/17 06:25:54;;;;;;;12.73;8.90;;;12.70;99.90;;;;;;4992022;28;20335;-75
2023/05/17 06:28:41;;;;;;;10.43;8.37;;;12.70;99.90;;;;;;4993288;28;20201;-76
2023/05/17 06:31:29;;;;;;;9.93;8.07;;;12.80;99.90;;;;;;4992635;28;20690;-72
2023/05/17 06:34:19;;;;;;;10.23;8.73;;;12.70;99.90;;;;;;4992677;28;20243;-75
2023/05/17 06:37:06;;;;;;;10.27;8.37;;;12.80;99.90;;;;;;4992286;28;20197;-77
2023/05/17 06:40:02;;;;;;;11.07;8.13;;;12.70;99.90;;;;;;4992792;28;20240;-77
2023/05/17 06:43:01;;;;;;;11.10;7.93;;;12.70;99.90;;;;;;4993295;28;20557;-76
2023/05/17 06:45:48;;;;;;;10.53;8.13;;;12.70;99.90;;;;;;4991136;28;20197;-77
2023/05/17 06:48:35;;;;;;;9.67;7.67;;;12.60;99.90;;;;;;4992313;28;20205;-76
2023/05/17 06:51:43;;;;;;;10.10;8.13;;;12.70;99.90;;;;;;4991724;28;20274;-78
2023/05/17 06:54:34;;;;;;;11.60;8.80;;;12.70;99.90;;;;;;4976734;28;20649;-83
2023/05/17 06:57:23;;;;;;;11.50;9.13;;;12.60;99.90;;;;;;4992927;28;20240;-83
2023/05/17 07:00:11;;;;;;;12.47;9.40;;;12.60;99.90;;;;;;4990529;28;20192;-82
2023/05/17 07:02:59;;;;;;;12.67;8.87;;;12.60;99.90;;;;;;4993785;28;20211;-83
2023/05/17 07:05:46;;;;;;;10.87;8.70;;;12.60;99.90;;;;;;4979005;28;20204;-83
2023/05/17 07:08:34;;;;;;;12.53;9.60;;;12.70;99.90;;;;;;4993812;28;20274;-81
2023/05/17 07:11:21;;;;;;;11.50;9.33;;;12.80;99.90;;;;;;5009253;28;20196;-78
2023/05/17 07:14:12;;;;;;;11.30;9.23;;;12.80;99.90;;;;;;5004145;28;20360;-79
2023/05/17 07:17:02;;;;;;;12.43;9.10;;;12.80;99.90;;;;;;4991847;28;20217;-81
2023/05/17 07:19:50;;;;;;;10.30;9.07;;;12.80;99.90;;;;;;5004479;28;20280;-79
2023/05/17 07:22:38;;;;;;;11.27;8.20;;;12.70;99.90;;;;;;4992547;28;20193;-78
2023/05/17 07:25:25;;;;;;;9.73;8.23;;;12.70;99.90;;;;;;4972153;28;20198;-80
2023/05/17 07:28:13;;;;;;;11.10;8.47;;;12.80;99.90;;;;;;4972111;28;20205;-83
2023/05/17 07:31:00;;;;;;;9.33;8.27;;;12.80;99.90;;;;;;4972047;28;20280;-83
2023/05/17 07:33:47;;;;;;;10.50;8.40;;;12.90;99.90;;;;;;4972925;28;20205;-78
2023/05/17 07:36:35;;;;;;;9.60;7.93;;;12.90;99.90;;;;;;4971917;28;20275;-81
2023/05/17 07:39:22;;;;;;;9.77;7.97;;;12.90;99.90;;;;;;4970699;28;20857;-83
2023/05/17 07:42:13;;;;;;;10.27;8.33;;;12.80;99.90;;;;;;4972345;28;20223;-82
2023/05/17 07:45:01;;;;;;;13.90;8.10;;;12.80;99.90;;;;;;4972579;28;20197;-81
2023/05/17 07:47:48;;;;;;;11.33;8.27;;;12.80;99.90;;;;;;4971891;28;20885;-84
2023/05/17 07:50:36;;;;;;;10.50;8.20;;;12.70;99.90;;;;;;4978075;28;20200;-83
2023/05/17 07:53:23;;;;;;;10.77;8.43;;;12.70;99.90;;;;;;4991252;28;20265;-86
2023/05/17 07:56:11;;;;;;;11.50;9.00;;;12.80;99.90;;;;;;4981001;28;20323;-83
2023/05/17 07:58:59;;;;;;;12.53;9.20;;;12.80;99.90;;;;;;4992707;28;20247;-76
2023/05/17 08:01:47;;;;;;;10.23;8.13;;;12.90;99.90;;;;;;4993378;28;20632;-85
2023/05/17 08:04:35;;;;;;;10.50;7.53;;;12.90;99.90;;;;;;4992398;28;20197;-81
2023/05/17 08:07:22;;;;;;;10.50;7.50;;;12.80;99.90;;;;;;4992312;28;20192;-79
2023/05/17 08:10:10;;;;;;;8.73;7.63;;;12.80;99.90;;;;;;4992159;28;20212;-83
2023/05/17 08:12:57;;;;;;;11.37;8.60;;;12.80;99.90;;;;;;4991297;28;20284;-82
2023/05/17 08:15:44;;;;;;;9.20;7.87;;;12.90;99.90;;;;;;4977725;28;20737;-79
2023/05/17 08:18:32;;;;;;;10.23;8.53;;;12.80;99.90;;;;;;4992771;28;20569;-83
2023/05/17 08:21:19;;;;;;;11.10;8.93;;;12.90;99.90;;;;;;4991098;28;20778;-79
2023/05/17 08:24:07;;;;;;;11.63;8.40;;;12.90;99.90;;;;;;4990694;28;20204;-78
2023/05/17 08:26:55;;;;;;;11.43;8.20;;;12.90;99.90;;;;;;4991209;28;20204;-76
2023/05/17 08:29:43;;;;;;;10.03;8.00;;;12.90;99.90;;;;;;4991506;28;20402;-83
2023/05/17 08:32:30;;;;;;;9.57;7.30;;;12.90;99.90;;;;;;4991235;28;20287;-80
2023/05/17 08:35:27;;;;;;;8.10;6.83;;;12.80;99.90;;;;;;4990555;28;20199;-79
2023/05/17 08:38:15;;;;;;;9.23;7.10;;;12.80;99.90;;;;;;4989658;28;20201;-77
2023/05/17 08:41:07;;;;;;;7.90;6.50;;;12.90;99.90;;;;;;4991684;28;20232;-79
2023/05/17 08:43:55;;;;;;;6.73;5.97;;;12.90;99.90;;;;;;4991080;28;20606;-82
2023/05/17 08:46:52;;;;;;;7.67;6.50;;;12.70;99.90;;;;;;4990394;28;20201;-82
2023/05/17 08:49:45;;;;;;;8.40;7.40;;;12.70;99.90;;;;;;4992334;28;20668;-82
2023/05/17 08:53:02;;;;;;;10.27;7.70;;;12.70;99.90;;;;;;4942191;29;20258;-84
2023/05/17 08:55:50;;;;;;;10.20;8.10;;;12.70;99.90;;;;;;4917410;29;20354;-80
2023/05/17 08:58:50;;;;;;;8.03;6.73;;;12.70;99.90;;;;;;4931029;28;20230;-86
2023/05/17 09:01:46;;;;;;;8.63;6.50;;;12.70;99.90;;;;;;4926108;29;20209;-80
2023/05/17 09:04:34;;;;;;;8.20;6.53;;;12.70;99.90;;;;;;4935796;29;20253;-86
2023/05/17 09:07:21;;;;;;;7.53;6.17;;;12.60;99.90;;;;;;4936313;28;20210;-83
2023/05/17 09:10:09;;;;;;;7.87;5.87;;;12.60;99.90;;;;;;4917637;29;20294;-82
2023/05/17 09:12:56;;;;;;;8.13;6.13;;;12.60;99.90;;;;;;4931523;29;20207;-83
2023/05/17 09:15:47;;;;;;;7.23;6.17;;;12.60;99.90;;;;;;4925694;28;20280;-82
2023/05/17 09:18:34;;;;;;;7.93;6.43;;;12.70;99.90;;;;;;4967733;28;20241;-77
2023/05/17 09:21:23;;;;;;;7.80;5.97;;;12.70;99.90;;;;;;4966979;28;20208;-82
2023/05/17 09:24:11;;;;;;;10.03;6.30;;;12.70;99.90;;;;;;4956949;28;20612;-78
2023/05/17 09:27:02;;;;;;;7.43;5.80;;;12.60;99.90;;;;;;4952096;28;20726;-78
2023/05/17 09:29:49;;;;;;;7.57;6.23;;;12.70;99.90;;;;;;4951350;29;20213;-78
2023/05/17 09:32:45;;;;;;;8.67;7.00;;;12.70;99.90;;;;;;4952992;28;20202;-80
2023/05/17 09:35:35;;;;;;;8.70;7.17;;;12.80;99.90;;;;;;4955275;28;20272;-77
2023/05/17 09:38:25;;;;;;;11.70;8.33;;;12.80;99.90;;;;;;4955625;28;20277;-80
2023/05/17 09:41:16;;;;;;;10.70;8.17;;;12.90;99.90;;;;;;4955517;28;20321;-76
2023/05/17 09:44:09;;;;;;;12.67;8.57;;;12.70;99.90;;;;;;4960198;28;20212;-76
2023/05/17 09:47:00;;;;;;;11.93;8.20;;;12.70;99.90;;;;;;4972612;28;20213;-83
2023/05/17 09:49:47;;;;;;;11.50;8.30;;;12.70;99.90;;;;;;4978508;28;20654;-81
2023/05/17 09:52:35;;;;;;;14.27;9.60;;;12.60;99.90;;;;;;4974633;28;20680;-81
2023/05/17 09:55:26;;;;;;;14.60;12.02;;;12.50;99.90;;;;;;4975398;28;20506;-85
2023/05/17 09:58:17;;;;;;;12.53;9.40;;;12.50;99.90;;;;;;4955830;28;20261;-77
2023/05/17 10:01:09;;;;;;;10.47;8.60;;;12.40;99.90;;;;;;4960104;29;20667;-77
2023/05/17 10:04:01;;;;;;;15.10;8.63;;;12.40;99.90;;;;;;4960240;29;20210;-83
2023/05/17 10:06:52;;;;;;;11.33;8.40;;;12.40;99.90;;;;;;4953288;29;20210;-84
2023/05/17 10:09:41;;;;;;;11.20;8.13;;;12.40;99.90;;;;;;4955881;29;20707;-85
2023/05/17 10:12:32;;;;;;;10.90;8.33;;;12.50;99.90;;;;;;4956416;29;20623;-83
2023/05/17 10:15:21;;;;;;;13.43;8.20;;;12.50;99.90;;;;;;4961399;28;20265;-80
2023/05/17 10:18:14;;;;;;;11.80;8.20;;;12.50;99.90;;;;;;4968392;28;20283;-76
2023/05/17 10:21:02;;;;;;;12.53;9.60;;;12.60;99.90;;;;;;4993609;28;20207;-80
2023/05/17 10:23:50;;;;;;;13.97;10.13;;;12.70;99.90;;;;;;4983341;28;20209;-81
2023/05/17 10:26:38;;;;;;;15.40;10.30;;;12.60;99.90;;;;;;4973717;28;20202;-83
2023/05/17 10:29:26;;;;;;;15.40;11.50;;;12.50;99.90;;;;;;4974170;28;20232;-76
2023/05/17 10:32:15;;;;;;;16.13;12.23;;;12.30;99.90;;;;;;4972436;28;20220;-80
2023/05/17 10:35:08;;;;;;;17.90;12.10;;;12.20;99.90;;;;;;4969098;28;20387;-84
2023/05/17 10:37:58;;;;;;;18.13;11.80;;;12.10;99.90;;;;;;4973650;28;20225;-85
2023/05/17 10:40:47;;;;;;;18.80;12.77;;;12.20;99.90;;;;;;4973322;28;20289;-84
2023/05/17 10:43:37;;;;;;;19.20;13.30;;;12.10;99.90;;;;;;4972528;28;20288;-83
2023/05/17 10:51:11;;;;;;;20.47;13.40;;;12.00;99.90;;;;;;4917171;29;20195;-84
2023/05/17 10:55:11;;;;;;;23.13;12.87;;;12.00;99.90;;;;;;4867003;29;20229;-84
2023/05/17 11:03:07;;;;;;;16.63;10.97;;;12.10;99.90;;;;;;4848328;29;20238;-85
2023/05/17 11:06:11;;;;;;;18.80;11.40;;;12.00;99.90;;;;;;4841082;29;20206;-82
2023/05/17 11:14:21;;;;;;;20.07;10.47;;;12.00;99.90;;;;;;4806679;29;20893;-84
2023/05/17 11:22:11;;;;;;;16.33;10.30;;;11.90;99.90;;;;;;4698832;30;20192;-84
2023/05/17 11:25:23;;;;;;;17.23;10.03;;;11.80;99.90;;;;;;4686024;30;20234;-86
2023/05/17 11:28:47;;;;;;;17.93;10.00;;;12.00;99.90;;;;;;4697387;30;20278;-86
2023/05/17 11:31:52;;;;;;;17.17;9.57;;;11.80;99.90;;;;;;4698201;30;20222;-85
2023/05/17 11:34:53;;;;;;;16.93;10.03;;;11.90;99.90;;;;;;4730485;30;20214;-87
2023/05/17 11:37:43;;;;;;;18.03;10.30;;;11.90;99.90;;;;;;4731658;30;20356;-84
2023/05/17 11:41:40;;;;;;;17.87;10.20;;;11.90;99.90;;;;;;4731542;30;20749;-87
2023/05/17 11:44:48;;;;;;;16.60;9.63;;;11.90;99.90;;;;;;4732783;30;20202;-87
2023/05/17 11:48:09;;;;;;;16.07;9.37;;;11.80;99.90;;;;;;4759755;29;20216;-88
2023/05/17 11:51:23;;;;;;;13.27;8.57;;;11.80;99.90;;;;;;4756997;30;20278;-86
2023/05/17 11:54:14;;;;;;;34.27;10.67;;;11.80;99.90;;;;;;4835836;29;20222;-86
2023/05/17 11:57:03;;;;;;;17.63;10.03;;;11.80;99.90;;;;;;4870781;29;20279;-87
2023/05/17 12:00:16;;;;;;;20.57;11.37;;;11.90;99.90;;;;;;4924942;29;20315;-83
2023/05/17 12:03:20;;;;;;;18.60;10.73;;;11.90;99.90;;;;;;4912478;29;20251;-82
2023/05/17 12:06:12;;;;;;;19.77;10.77;;;12.10;99.90;;;;;;4932224;29;20301;-83
2023/05/17 12:08:59;;;;;;;15.87;10.50;;;12.10;99.90;;;;;;4931084;29;20199;-83
2023/05/17 12:12:02;;;;;;;17.30;9.80;;;12.10;99.90;;;;;;4931042;29;20199;-81
2023/05/17 12:16:11;;;;;;;16.77;9.93;;;12.10;99.90;;;;;;4964523;28;20209;-84
2023/05/17 12:19:19;;;;;;;19.90;9.70;;;12.20;99.90;;;;;;4893060;29;20212;-82
2023/05/17 12:22:11;;;;;;;12.13;8.23;;;12.20;99.90;;;;;;4900026;29;20204;-83
2023/05/17 12:24:59;;;;;;;19.30;7.53;;;12.10;99.90;;;;;;4874195;29;20215;-84
2023/05/17 12:27:46;;;;;;;14.60;7.63;;;12.10;99.90;;;;;;4878330;29;20667;-85
2023/05/17 12:30:34;;;;;;;17.23;7.40;;;12.10;99.90;;;;;;4876631;29;20385;-86
2023/05/17 12:33:21;;;;;;;12.67;7.13;;;12.20;99.90;;;;;;4862489;29;20204;-87
2023/05/17 12:36:15;;;;;;;12.30;7.57;;;12.10;99.90;;;;;;4876036;29;20264;-89
2023/05/17 12:39:08;;;;;;;14.70;7.53;;;12.10;99.90;;;;;;4876994;29;20200;-81
2023/05/17 12:50:38;;;;;;;13.90;7.60;;;12.20;99.90;;;;;;4707503;30;20277;-82
2023/05/17 12:54:19;;;;;;;;;;;;;;;;;;;;;
2023/05/17 12:57:15;;;;;;;14.27;7.77;;;12.30;99.90;;;;;;4730078;30;20711;-85
2023/05/17 13:00:06;;;;;;;12.47;7.97;;;12.10;99.90;;;;;;4742257;29;20240;-85
2023/05/17 13:03:14;;;;;;;14.03;7.93;;;12.20;99.90;;;;;;4749215;29;20205;-83
2023/05/17 13:09:54;;;;;;;15.63;8.07;;;12.40;99.90;;;;;;4739485;30;20198;-86
2023/05/17 13:12:40;;;;;;;18.87;8.33;;;12.30;99.90;;;;;;4739448;30;20204;-83
2023/05/17 13:15:31;;;;;;;13.87;8.60;;;12.30;99.90;;;;;;4741139;30;20277;-83
2023/05/17 13:18:20;;;;;;;10.87;7.87;;;12.20;99.90;;;;;;4751011;30;20760;-87
2023/05/17 13:21:05;;;;;;;16.13;8.87;;;12.30;99.90;;;;;;4760830;29;20238;-83
2023/05/17 13:28:24;;;;;;;16.87;9.40;;;12.50;99.90;;;;;;4823202;29;20191;-86
2023/05/17 13:31:28;;;;;;;15.90;9.27;;;12.50;99.90;;;;;;4735285;30;20294;-87
2023/05/17 13:34:15;;;;;;;17.33;9.23;;;12.60;99.90;;;;;;4734261;30;20299;-84
2023/05/17 13:37:06;;;;;;;13.83;9.07;;;12.60;99.90;;;;;;4754504;30;20233;-85
2023/05/17 13:40:17;;;;;;;15.37;9.70;;;12.70;99.90;;;;;;4769454;29;20358;-86
2023/05/17 13:43:30;;;;;;;15.23;9.40;;;12.70;99.90;;;;;;4768307;30;20299;-86
2023/05/17 13:46:17;;;;;;;16.47;9.03;;;12.80;99.90;;;;;;4781210;29;20257;-85
2023/05/17 13:49:06;;;;;;;17.60;9.27;;;12.90;99.90;;;;;;4804295;29;20223;-84
2023/05/17 13:51:54;;;;;;;17.33;9.20;;;13.00;99.90;;;;;;4804646;29;20305;-84
2023/05/17 13:54:41;;;;;;;15.20;8.70;;;13.00;99.90;;;;;;4805497;29;20913;-84
2023/05/17 13:58:00;;;;;;;17.13;8.43;;;13.00;99.90;;;;;;4806425;29;20584;-87
2023/05/17 14:00:49;;;;;;;14.20;8.87;;;13.00;99.90;;;;;;4806073;29;20241;-87
2023/05/17 14:03:36;;;;;;;13.73;8.27;;;12.90;99.90;;;;;;4820973;29;20209;-86
2023/05/17 14:06:23;;;;;;;15.27;8.40;;;12.90;99.90;;;;;;4908981;29;20230;-86
2023/05/17 14:09:11;;;;;;;15.40;8.90;;;12.90;99.90;;;;;;4978848;28;20216;-85
2023/05/17 14:11:59;;;;;;;13.73;8.53;;;12.90;99.90;;;;;;5004360;28;20206;-87
2023/05/17 14:14:47;;;;;;;17.17;9.00;;;12.80;99.90;;;;;;4973839;28;20201;-85
2023/05/17 14:17:37;;;;;;;13.93;9.57;;;12.80;99.90;;;;;;4974381;28;20660;-87
2023/05/17 14:20:28;;;;;;;15.73;9.60;;;12.90;99.90;;;;;;4995538;28;20733;-86
2023/05/17 14:23:23;;;;;;;15.33;9.43;;;12.70;99.90;;;;;;5004825;28;20675;-86
2023/05/17 14:26:12;;;;;;;17.20;9.23;;;12.60;99.90;;;;;;4991150;28;20197;-84
2023/05/17 14:34:10;;;;;;;14.43;9.57;;;12.60;99.90;;;;;;4852140;29;20423;-87
2023/05/17 14:36:58;;;;;;;16.53;10.00;;;12.60;99.90;;;;;;4856536;29;20237;-84
2023/05/17 14:39:50;;;;;;;14.70;9.63;;;12.60;99.90;;;;;;4883018;29;20216;-90
2023/05/17 14:43:01;;;;;;;16.77;9.60;;;12.70;99.90;;;;;;4896178;29;20268;-90
2023/05/17 14:45:55;;;;;;;14.77;9.97;;;12.80;99.90;;;;;;4888587;29;20279;-86
2023/05/17 14:48:42;;;;;;;16.83;9.30;;;12.70;99.90;;;;;;4912824;29;20298;-90
2023/05/17 14:51:50;;;;;;;15.50;9.53;;;12.50;99.90;;;;;;4915697;28;20692;-85
2023/05/17 14:54:42;;;;;;;15.43;9.57;;;12.50;99.90;;;;;;4892237;29;20280;-88
2023/05/17 14:57:30;;;;;;;15.60;9.93;;;12.50;99.90;;;;;;4895641;29;20264;-85
2023/05/17 15:00:18;;;;;;;18.60;10.70;;;12.50;99.90;;;;;;4896212;29;20224;-83
2023/05/17 15:03:05;;;;;;;16.90;10.00;;;12.50;99.90;;;;;;4877832;29;20276;-87
2023/05/17 15:05:54;;;;;;;17.73;10.13;;;12.50;99.90;;;;;;4864201;29;20200;-83
2023/05/17 15:08:41;;;;;;;16.97;10.57;;;12.40;99.90;;;;;;4949959;28;20678;-86
2023/05/17 15:11:29;;;;;;;18.17;10.50;;;12.50;99.90;;;;;;5018364;28;20211;-85
2023/05/17 15:14:23;;;;;;;16.73;10.90;;;12.50;99.90;;;;;;5013681;28;20188;-83
2023/05/17 15:17:18;;;;;;;18.57;11.37;;;12.50;99.90;;;;;;5003379;28;20216;-87
2023/05/17 15:20:14;;;;;;;19.30;11.83;;;12.50;99.90;;;;;;4951204;29;20648;-85